createdAt,value
2022-08-20T00:00:43.900Z,95914.06
2022-08-20T00:03:14.143Z,95907.06
2022-08-20T00:05:47.041Z,95905.47
2022-08-20T00:08:13.724Z,95911.50
2022-08-20T00:10:42.856Z,95909.16
2022-08-20T00:13:18.180Z,95905.72
2022-08-20T00:15:45.638Z,95897.25
2022-08-20T00:18:12.883Z,95899.13
2022-08-20T00:20:43.066Z,95903.25
2022-08-20T00:23:10.700Z,95909.44
2022-08-20T00:25:38.103Z,95915.44
2022-08-20T00:28:07.095Z,95900.09
2022-08-20T00:30:36.046Z,95902.69
2022-08-20T00:33:06.975Z,95911.13
2022-08-20T00:35:36.084Z,95915.41
2022-08-20T00:38:04.554Z,95929.47
2022-08-20T00:40:37.213Z,95914.53
2022-08-20T00:43:07.300Z,95919.78
2022-08-20T00:45:35.805Z,95919.44
2022-08-20T00:48:02.846Z,95915.91
2022-08-20T00:50:36.644Z,95913.06
2022-08-20T00:53:08.528Z,95920.50
2022-08-20T00:55:36.141Z,95920.50
2022-08-20T00:58:09.097Z,95924.97
2022-08-20T01:00:42.960Z,95921.56
2022-08-20T01:03:11.412Z,95919.81
2022-08-20T01:05:40.544Z,95920.69
2022-08-20T01:08:07.868Z,95927.63
2022-08-20T01:10:37.449Z,95927.28
2022-08-20T01:13:11.148Z,95919.81
2022-08-20T01:15:43.975Z,95927.28
2022-08-20T01:18:14.623Z,95931.47
2022-08-20T01:20:46.814Z,95927.69
2022-08-20T01:23:43.285Z,95929.28
2022-08-20T01:26:17.767Z,95933.81
2022-08-20T01:28:53.602Z,95942.06
2022-08-20T01:31:26.267Z,95930.94
2022-08-20T01:33:55.196Z,95937.78
2022-08-20T01:36:40.136Z,95936.28
2022-08-20T01:39:12.852Z,95939.34
2022-08-20T01:41:47.683Z,95938.91
2022-08-20T01:44:18.532Z,95932.88
2022-08-20T01:46:46.854Z,95939.19
2022-08-20T01:49:19.204Z,95936.13
2022-08-20T01:51:52.554Z,95931.53
2022-08-20T01:54:19.818Z,95929.72
2022-08-20T01:57:11.547Z,95929.47
2022-08-20T01:59:38.682Z,95935.53
2022-08-20T02:02:07.061Z,95921.22
2022-08-20T02:04:34.347Z,95925.75
2022-08-20T02:07:04.250Z,95932.63
2022-08-20T02:09:36.499Z,95933.84
2022-08-20T02:12:06.053Z,95928.22
2022-08-20T02:14:33.542Z,95929.91
2022-08-20T02:17:00.799Z,95934.88
2022-08-20T02:19:32.411Z,95927.47
2022-08-20T02:22:03.084Z,95924.31
2022-08-20T02:24:30.137Z,95927.31
2022-08-20T02:26:57.180Z,95916.72
2022-08-20T02:29:24.042Z,95920.59
2022-08-20T02:32:24.468Z,95923.75
2022-08-20T02:34:37.700Z,95913.34
2022-08-20T02:37:06.320Z,95915.59
2022-08-20T02:39:33.622Z,95914.13
2022-08-20T02:42:01.859Z,95920.38
2022-08-20T02:44:28.636Z,95923.16
2022-08-20T02:46:55.603Z,95920.72
2022-08-20T02:49:22.307Z,95922.38
2022-08-20T02:51:49.733Z,95924.75
2022-08-20T02:54:17.431Z,95937.41
2022-08-20T02:56:44.434Z,95929.22
2022-08-20T02:59:11.115Z,95935.03
2022-08-20T03:01:45.797Z,95950.59
2022-08-20T03:04:12.472Z,95942.69
2022-08-20T03:06:39.116Z,95934.69
2022-08-20T03:09:07.813Z,95931.13
2022-08-20T03:11:35.060Z,95933.63
2022-08-20T03:14:02.408Z,95929.41
2022-08-20T03:16:29.144Z,95936.34
2022-08-20T03:18:55.899Z,95931.13
2022-08-20T03:21:22.571Z,95934.88
2022-08-20T03:23:49.369Z,95936.13
2022-08-20T03:26:16.602Z,95938.28
2022-08-20T03:28:43.465Z,95941.44
2022-08-20T03:31:12.534Z,95936.69
2022-08-20T03:33:52.667Z,95937.91
2022-08-20T03:36:27.859Z,95937.59
2022-08-20T03:39:00.016Z,95933.78
2022-08-20T03:41:26.829Z,95936.06
2022-08-20T03:43:53.684Z,95937.63
2022-08-20T03:46:23.390Z,95943.50
2022-08-20T03:48:56.705Z,95946.22
2022-08-20T03:51:30.762Z,95946.88
2022-08-20T03:53:57.962Z,95950.50
2022-08-20T03:56:25.409Z,95953.19
2022-08-20T03:58:52.240Z,95949.34
2022-08-20T04:01:44.377Z,95957.91
2022-08-20T04:04:05.760Z,95962.97
2022-08-20T04:06:39.756Z,95966.75
2022-08-20T04:09:07.323Z,95969.34
2022-08-20T04:11:37.616Z,95965.75
2022-08-20T04:14:04.712Z,95971.38
2022-08-20T04:16:33.520Z,95975.63
2022-08-20T04:19:02.271Z,95979.84
2022-08-20T04:21:33.201Z,95989.38
2022-08-20T04:24:00.616Z,95989.16
2022-08-20T04:26:27.307Z,95987.31
2022-08-20T04:28:55.563Z,95991.47
2022-08-20T04:31:25.317Z,95985.72
2022-08-20T04:33:52.842Z,95988.00
2022-08-20T04:36:19.605Z,95991.59
2022-08-20T04:38:49.920Z,96003.16
2022-08-20T04:41:22.836Z,95997.59
2022-08-20T04:43:53.181Z,95999.28
2022-08-20T04:46:21.032Z,95997.44
2022-08-20T04:48:48.586Z,95999.25
2022-08-20T04:51:18.589Z,95995.59
2022-08-20T04:53:53.196Z,95991.88
2022-08-20T04:56:24.060Z,95995.16
2022-08-20T04:58:53.285Z,96009.72
2022-08-20T05:01:20.255Z,96005.44
2022-08-20T05:03:49.837Z,96005.88
2022-08-20T05:06:18.092Z,96008.59
2022-08-20T05:08:45.100Z,96015.13
2022-08-20T05:11:34.736Z,96024.88
2022-08-20T05:13:59.090Z,96025.22
2022-08-20T05:16:25.804Z,96032.09
2022-08-20T05:18:53.066Z,96035.47
2022-08-20T05:21:21.078Z,96040.00
2022-08-20T05:23:47.825Z,96048.59
2022-08-20T05:26:16.111Z,96049.97
2022-08-20T05:28:54.448Z,96055.38
2022-08-20T05:31:32.537Z,96049.94
2022-08-20T05:34:09.720Z,96059.44
2022-08-20T05:36:45.466Z,96056.94
2022-08-20T05:39:14.859Z,96065.22
2022-08-20T05:41:42.269Z,96058.28
2022-08-20T05:44:13.401Z,96060.78
2022-08-20T05:46:43.608Z,96063.59
2022-08-20T05:49:13.632Z,96064.16
2022-08-20T05:51:40.323Z,96063.59
2022-08-20T05:54:07.560Z,96069.25
2022-08-20T05:56:34.959Z,96064.56
2022-08-20T05:59:06.420Z,96062.72
2022-08-20T06:01:34.964Z,96075.38
2022-08-20T06:04:20.213Z,96069.09
2022-08-20T06:06:47.620Z,96076.13
2022-08-20T06:09:16.581Z,96072.63
2022-08-20T06:11:59.608Z,96074.09
2022-08-20T06:14:26.738Z,96074.56
2022-08-20T06:16:57.844Z,96079.94
2022-08-20T06:19:27.035Z,96081.09
2022-08-20T06:21:58.743Z,96088.53
2022-08-20T06:24:25.439Z,96092.59
2022-08-20T06:26:56.992Z,96090.66
2022-08-20T06:29:23.645Z,96100.06
2022-08-20T06:31:50.442Z,96103.81
2022-08-20T06:34:18.876Z,96108.13
2022-08-20T06:36:46.863Z,96113.13
2022-08-20T06:39:15.306Z,96108.31
2022-08-20T06:41:42.403Z,96109.78
2022-08-20T06:44:10.175Z,96106.78
2022-08-20T06:46:38.296Z,96116.22
2022-08-20T06:49:07.257Z,96114.66
2022-08-20T06:51:34.675Z,96113.28
2022-08-20T06:54:01.542Z,96113.53
2022-08-20T06:56:28.248Z,96111.56
2022-08-20T06:58:54.922Z,96108.25
2022-08-20T07:01:21.716Z,96106.69
2022-08-20T07:03:55.778Z,96118.66
2022-08-20T07:06:25.888Z,96113.31
2022-08-20T07:08:54.162Z,96116.84
2022-08-20T07:11:26.510Z,96112.78
2022-08-20T07:13:54.511Z,96125.34
2022-08-20T07:16:21.143Z,96121.88
2022-08-20T07:18:47.829Z,96120.94
2022-08-20T07:21:14.516Z,96125.75
2022-08-20T07:23:42.213Z,96126.31
2022-08-20T07:26:11.040Z,96129.09
2022-08-20T07:28:37.706Z,96131.38
2022-08-20T07:31:23.170Z,96129.47
2022-08-20T07:33:50.410Z,96130.53
2022-08-20T07:36:17.808Z,96140.13
2022-08-20T07:38:47.202Z,96140.22
2022-08-20T07:41:14.996Z,96143.38
2022-08-20T07:43:45.696Z,96141.63
2022-08-20T07:46:20.726Z,96146.03
2022-08-20T07:48:50.218Z,96140.09
2022-08-20T07:51:22.442Z,96158.34
2022-08-20T07:53:51.707Z,96152.78
2022-08-20T07:56:24.463Z,96147.81
2022-08-20T07:58:55.314Z,96153.56
2022-08-20T08:01:28.634Z,96146.09
2022-08-20T08:03:57.603Z,96154.19
2022-08-20T08:06:29.646Z,96148.31
2022-08-20T08:09:13.720Z,96154.13
2022-08-20T08:11:50.135Z,96155.16
2022-08-20T08:14:23.662Z,96149.34
2022-08-20T08:16:51.110Z,96145.47
2022-08-20T08:19:18.699Z,96145.94
2022-08-20T08:21:45.600Z,96153.59
2022-08-20T08:24:16.684Z,96150.97
2022-08-20T08:26:49.134Z,96152.53
2022-08-20T08:29:16.479Z,96151.00
2022-08-20T08:31:43.253Z,96162.13
2022-08-20T08:34:10.016Z,96158.03
2022-08-20T08:36:36.627Z,96153.69
2022-08-20T08:39:03.343Z,96155.31
2022-08-20T08:41:35.441Z,96152.38
2022-08-20T08:44:12.256Z,96150.31
2022-08-20T08:46:42.759Z,96147.25
2022-08-20T08:49:16.201Z,96149.22
2022-08-20T08:51:48.637Z,96136.63
2022-08-20T08:54:21.383Z,96137.44
2022-08-20T08:56:49.901Z,96128.41
2022-08-20T08:59:19.361Z,96131.09
2022-08-20T09:01:56.845Z,96137.22
2022-08-20T09:04:32.213Z,96140.38
2022-08-20T09:07:01.872Z,96135.16
2022-08-20T09:09:39.727Z,96144.22
2022-08-20T09:12:19.022Z,96149.16
2022-08-20T09:14:50.620Z,96147.84
2022-08-20T09:17:19.880Z,96156.00
2022-08-20T09:19:46.876Z,96159.16
2022-08-20T09:22:17.558Z,96162.25
2022-08-20T09:24:45.165Z,96164.41
2022-08-20T09:27:12.419Z,96163.41
2022-08-20T09:29:40.283Z,96164.63
2022-08-20T09:32:13.376Z,96167.88
2022-08-20T09:34:44.838Z,96166.69
2022-08-20T09:37:12.464Z,96177.66
2022-08-20T09:39:39.647Z,96172.91
2022-08-20T09:42:12.137Z,96173.88
2022-08-20T09:44:38.967Z,96165.63
2022-08-20T09:47:05.854Z,96160.97
2022-08-20T09:49:32.957Z,96161.91
2022-08-20T09:52:01.389Z,96171.38
2022-08-20T09:54:30.244Z,96185.09
2022-08-20T09:57:02.499Z,96182.66
2022-08-20T09:59:31.330Z,96178.84
2022-08-20T10:01:58.231Z,96177.63
2022-08-20T10:04:25.004Z,96176.00
2022-08-20T10:06:51.804Z,96172.28
2022-08-20T10:09:19.065Z,96176.88
2022-08-20T10:11:45.767Z,96178.66
2022-08-20T10:14:12.466Z,96175.59
2022-08-20T10:16:39.088Z,96181.38
2022-08-20T10:19:06.096Z,96175.69
2022-08-20T10:21:38.124Z,96169.59
2022-08-20T10:24:05.782Z,96169.06
2022-08-20T10:26:32.448Z,96162.81
2022-08-20T10:28:59.099Z,96162.13
2022-08-20T10:31:25.779Z,96169.41
2022-08-20T10:33:52.436Z,96170.88
2022-08-20T10:36:19.153Z,96172.66
2022-08-20T10:38:46.437Z,96177.63
2022-08-20T10:41:13.325Z,96176.13
2022-08-20T10:43:40.090Z,96177.38
2022-08-20T10:46:07.024Z,96177.69
2022-08-20T10:48:33.797Z,96178.63
2022-08-20T10:51:00.748Z,96180.38
2022-08-20T10:53:27.463Z,96178.94
2022-08-20T10:55:54.914Z,96182.47
2022-08-20T10:58:23.764Z,96180.03
2022-08-20T11:00:52.224Z,96188.34
2022-08-20T11:03:19.432Z,96185.00
2022-08-20T11:05:46.655Z,96183.38
2022-08-20T11:08:13.360Z,96180.91
2022-08-20T11:10:41.166Z,96180.25
2022-08-20T11:13:08.587Z,96170.09
2022-08-20T11:15:42.128Z,96173.34
2022-08-20T11:18:09.215Z,96170.09
2022-08-20T11:20:37.022Z,96166.03
2022-08-20T11:23:04.217Z,96172.03
2022-08-20T11:25:31.804Z,96165.81
2022-08-20T11:27:59.267Z,96169.66
2022-08-20T11:30:33.842Z,96173.25
2022-08-20T11:33:01.059Z,96176.53
2022-08-20T11:35:49.949Z,96175.34
2022-08-20T11:38:18.308Z,96176.88
2022-08-20T11:40:46.786Z,96175.19
2022-08-20T11:43:15.913Z,96170.59
2022-08-20T11:45:49.751Z,96175.56
2022-08-20T11:48:16.960Z,96181.97
2022-08-20T11:50:44.423Z,96183.44
2022-08-20T11:53:11.175Z,96175.34
2022-08-20T11:55:38.692Z,96177.91
2022-08-20T11:58:06.113Z,96182.47
2022-08-20T12:00:34.299Z,96188.28
2022-08-20T12:03:04.997Z,96184.66
2022-08-20T12:05:32.487Z,96182.41
2022-08-20T12:08:01.370Z,96176.00
2022-08-20T12:10:29.363Z,96189.25
2022-08-20T12:12:56.664Z,96178.16
2022-08-20T12:15:24.367Z,96172.03
2022-08-20T12:17:51.103Z,96170.44
2022-08-20T12:20:17.915Z,96172.38
2022-08-20T12:22:44.791Z,96175.38
2022-08-20T12:25:13.342Z,96171.22
2022-08-20T12:27:41.438Z,96174.81
2022-08-20T12:30:16.975Z,96175.81
2022-08-20T12:32:44.705Z,96174.66
2022-08-20T12:35:13.010Z,96176.78
2022-08-20T12:37:40.764Z,96185.00
2022-08-20T12:40:14.262Z,96191.09
2022-08-20T12:42:41.281Z,96188.34
2022-08-20T12:45:08.492Z,96185.00
2022-08-20T12:47:38.014Z,96189.69
2022-08-20T12:50:16.512Z,96187.16
2022-08-20T12:52:43.253Z,96187.75
2022-08-20T12:55:12.071Z,96179.03
2022-08-20T12:57:42.043Z,96178.97
2022-08-20T13:00:13.816Z,96181.50
2022-08-20T13:02:41.405Z,96179.97
2022-08-20T13:05:13.767Z,96177.69
2022-08-20T13:07:41.326Z,96184.38
2022-08-20T13:10:10.402Z,96185.44
2022-08-20T13:12:37.190Z,96190.56
2022-08-20T13:15:05.054Z,96186.91
2022-08-20T13:17:38.597Z,96185.84
2022-08-20T13:20:10.204Z,96189.28
2022-08-20T13:22:37.050Z,96178.81
2022-08-20T13:25:05.462Z,96187.97
2022-08-20T13:27:32.246Z,96185.78
2022-08-20T13:29:59.412Z,96187.09
2022-08-20T13:32:27.828Z,96189.38
2022-08-20T13:34:54.773Z,96192.22
2022-08-20T13:37:25.775Z,96186.88
2022-08-20T13:39:53.984Z,96187.09
2022-08-20T13:42:21.202Z,96183.06
2022-08-20T13:44:48.517Z,96187.63
2022-08-20T13:47:19.637Z,96181.19
2022-08-20T13:49:47.670Z,96182.91
2022-08-20T13:52:16.996Z,96186.28
2022-08-20T13:54:44.039Z,96181.97
2022-08-20T13:57:13.857Z,96181.97
2022-08-20T13:59:43.194Z,96178.25
2022-08-20T14:02:11.399Z,96183.97
2022-08-20T14:04:38.902Z,96183.88
2022-08-20T14:07:32.615Z,96188.19
2022-08-20T14:10:07.699Z,96179.38
2022-08-20T14:12:34.919Z,96187.72
2022-08-20T14:15:01.735Z,96185.72
2022-08-20T14:17:37.279Z,96182.03
2022-08-20T14:20:13.671Z,96179.66
2022-08-20T14:22:42.491Z,96175.19
2022-08-20T14:25:15.198Z,96175.09
2022-08-20T14:27:42.204Z,96170.81
2022-08-20T14:30:12.841Z,96169.31
2022-08-20T14:32:39.575Z,96166.13
2022-08-20T14:35:07.138Z,96170.06
2022-08-20T14:37:39.319Z,96160.22
2022-08-20T14:40:09.582Z,96166.53
2022-08-20T14:42:36.963Z,96165.19
2022-08-20T14:45:06.514Z,96168.28
2022-08-20T14:47:40.179Z,96162.19
2022-08-20T14:50:10.943Z,96160.13
2022-08-20T14:52:38.028Z,96172.28
2022-08-20T14:55:06.873Z,96179.34
2022-08-20T14:57:34.012Z,96179.75
2022-08-20T15:00:01.238Z,96175.72
2022-08-20T15:02:27.931Z,96177.22
2022-08-20T15:04:56.240Z,96171.75
2022-08-20T15:07:37.950Z,96175.94
2022-08-20T15:10:07.934Z,96182.97
2022-08-20T15:12:37.744Z,96175.09
2022-08-20T15:15:15.392Z,96176.22
2022-08-20T15:18:09.022Z,96181.81
2022-08-20T15:20:36.779Z,96170.88
2022-08-20T15:23:04.799Z,96164.25
2022-08-20T15:25:36.641Z,96165.28
2022-08-20T15:28:06.896Z,96166.41
2022-08-20T15:30:33.699Z,96166.94
2022-08-20T15:33:00.828Z,96170.19
2022-08-20T15:35:28.695Z,96174.97
2022-08-20T15:37:58.195Z,96175.16
2022-08-20T15:40:28.672Z,96172.59
2022-08-20T15:42:57.205Z,96179.06
2022-08-20T15:45:24.135Z,96179.41
2022-08-20T15:48:00.470Z,96183.03
2022-08-20T15:51:04.510Z,96185.56
2022-08-20T15:53:39.587Z,96192.56
2022-08-20T15:56:25.299Z,96193.06
2022-08-20T15:59:00.701Z,96192.94
2022-08-20T16:01:47.281Z,96196.38
2022-08-20T16:04:58.535Z,96196.00
2022-08-20T16:07:39.347Z,96200.81
2022-08-20T16:10:16.102Z,96196.53
2022-08-20T16:12:48.275Z,96196.41
2022-08-20T16:15:20.800Z,96198.25
2022-08-20T16:17:51.658Z,96204.72
2022-08-20T16:20:35.941Z,96206.06
2022-08-20T16:23:04.032Z,96211.72
2022-08-20T16:25:39.410Z,96213.63
2022-08-20T16:28:29.071Z,96207.59
2022-08-20T16:31:05.490Z,96212.34
2022-08-20T16:33:45.371Z,96215.78
2022-08-20T16:36:37.431Z,96217.66
2022-08-20T16:39:08.226Z,96214.59
2022-08-20T16:41:47.461Z,96221.59
2022-08-20T16:44:35.286Z,96213.94
2022-08-20T16:47:14.330Z,96215.84
2022-08-20T16:49:49.793Z,96216.69
2022-08-20T16:52:16.478Z,96220.19
2022-08-20T16:54:44.766Z,96220.03
2022-08-20T16:57:17.057Z,96213.19
2022-08-20T16:59:57.775Z,96211.53
2022-08-20T17:02:25.485Z,96220.25
2022-08-20T17:04:58.887Z,96219.34
2022-08-20T17:07:46.185Z,96217.09
2022-08-20T17:10:24.139Z,96218.75
2022-08-20T17:13:02.658Z,96219.19
2022-08-20T17:15:32.563Z,96216.28
2022-08-20T17:18:24.392Z,96220.22
2022-08-20T17:20:51.373Z,96218.31
2022-08-20T17:23:19.784Z,96222.88
2022-08-20T17:26:00.567Z,96217.06
2022-08-20T17:28:33.177Z,96220.75
2022-08-20T17:31:01.857Z,96223.00
2022-08-20T17:33:33.893Z,96226.22
2022-08-20T17:36:19.725Z,96226.38
2022-08-20T17:38:51.768Z,96234.75
2022-08-20T17:41:26.793Z,96231.84
2022-08-20T17:44:07.250Z,96228.16
2022-08-20T17:46:45.669Z,96243.47
2022-08-20T17:49:17.741Z,96240.38
2022-08-20T17:51:50.895Z,96240.38
2022-08-20T17:54:23.634Z,96237.59
2022-08-20T17:56:52.223Z,96241.03
2022-08-20T17:59:44.400Z,96246.13
2022-08-20T18:02:09.089Z,96245.72
2022-08-20T18:04:35.819Z,96251.28
2022-08-20T18:07:11.207Z,96248.78
2022-08-20T18:09:46.575Z,96245.13
2022-08-20T18:12:33.825Z,96250.44
2022-08-20T18:15:16.130Z,96250.50
2022-08-20T18:18:01.481Z,96250.75
2022-08-20T18:20:28.053Z,96252.47
2022-08-20T18:23:06.776Z,96245.22
2022-08-20T18:25:46.051Z,96231.97
2022-08-20T18:28:12.585Z,96235.47
2022-08-20T18:30:47.639Z,96239.97
2022-08-20T18:33:14.256Z,96244.81
2022-08-20T18:35:45.535Z,96249.44
2022-08-20T18:38:26.142Z,96249.09
2022-08-20T18:40:55.259Z,96259.53
2022-08-20T18:43:30.539Z,96259.88
2022-08-20T18:46:08.674Z,96270.69
2022-08-20T18:48:35.279Z,96271.63
2022-08-20T18:51:03.182Z,96269.66
2022-08-20T18:53:33.849Z,96276.59
2022-08-20T18:56:08.671Z,96269.97
2022-08-20T18:58:50.108Z,96272.34
2022-08-20T19:01:19.264Z,96271.41
2022-08-20T19:03:47.651Z,96271.13
2022-08-20T19:06:29.350Z,96275.16
2022-08-20T19:09:14.920Z,96270.25
2022-08-20T19:12:00.332Z,96267.97
2022-08-20T19:14:33.051Z,96265.69
2022-08-20T19:17:06.723Z,96274.47
2022-08-20T19:19:33.523Z,96275.34
2022-08-20T19:22:01.238Z,96281.81
2022-08-20T19:24:29.310Z,96273.16
2022-08-20T19:27:04.573Z,96267.47
2022-08-20T19:29:33.058Z,96273.03
2022-08-20T19:32:00.975Z,96273.03
2022-08-20T19:34:28.256Z,96271.38
2022-08-20T19:37:02.155Z,96268.47
2022-08-20T19:39:37.466Z,96267.78
2022-08-20T19:42:04.057Z,96282.63
2022-08-20T19:44:32.817Z,96275.88
2022-08-20T19:47:01.106Z,96270.59
2022-08-20T19:49:36.531Z,96266.66
2022-08-20T19:52:09.658Z,96259.19
2022-08-20T19:54:43.910Z,96258.06
2022-08-20T19:57:10.825Z,96260.59
2022-08-20T19:59:37.944Z,96261.28
2022-08-20T20:02:20.674Z,96253.38
2022-08-20T20:04:54.979Z,96250.16
2022-08-20T20:07:45.069Z,96246.78
2022-08-20T20:10:23.631Z,96252.72
2022-08-20T20:12:50.406Z,96259.47
2022-08-20T20:15:17.735Z,96262.06
2022-08-20T20:17:44.742Z,96264.69
2022-08-20T20:20:17.406Z,96261.09
2022-08-20T20:22:52.015Z,96255.44
2022-08-20T20:25:27.703Z,96250.19
2022-08-20T20:27:55.653Z,96261.53
2022-08-20T20:30:33.512Z,96263.69
2022-08-20T20:33:01.316Z,96258.31
2022-08-20T20:35:32.936Z,96253.25
2022-08-20T20:38:04.454Z,96252.06
2022-08-20T20:40:33.997Z,96246.69
2022-08-20T20:43:07.611Z,96246.06
2022-08-20T20:45:39.578Z,96252.00
2022-08-20T20:48:14.136Z,96239.50
2022-08-20T20:50:40.683Z,96241.53
2022-08-20T20:53:07.574Z,96247.66
2022-08-20T20:55:37.414Z,96242.44
2022-08-20T20:58:03.996Z,96247.19
2022-08-20T21:00:33.089Z,96237.91
2022-08-20T21:03:00.291Z,96241.75
2022-08-20T21:05:30.327Z,96244.50
2022-08-20T21:07:58.612Z,96239.66
2022-08-20T21:10:27.519Z,96241.50
2022-08-20T21:12:54.426Z,96247.47
2022-08-20T21:15:22.313Z,96243.53
2022-08-20T21:17:48.951Z,96244.75
2022-08-20T21:20:15.540Z,96245.63
2022-08-20T21:22:42.102Z,96240.44
2022-08-20T21:25:08.806Z,96241.31
2022-08-20T21:27:35.810Z,96242.22
2022-08-20T21:30:03.648Z,96243.44
2022-08-20T21:32:30.211Z,96253.19
2022-08-20T21:34:56.726Z,96258.91
2022-08-20T21:37:23.245Z,96258.41
2022-08-20T21:39:49.763Z,96260.84
2022-08-20T21:42:28.799Z,96264.38
2022-08-20T21:44:56.624Z,96260.84
2022-08-20T21:47:23.147Z,96253.63
2022-08-20T21:49:49.643Z,96254.16
2022-08-20T21:52:16.186Z,96242.66
2022-08-20T21:54:42.700Z,96252.06
2022-08-20T21:57:13.576Z,96244.56
2022-08-20T21:59:41.426Z,96242.13
2022-08-20T22:02:08.344Z,96241.00
2022-08-20T22:04:35.622Z,96246.25
2022-08-20T22:07:03.553Z,96247.13
2022-08-20T22:09:32.850Z,96238.59
2022-08-20T22:12:02.730Z,96237.00
2022-08-20T22:14:29.542Z,96236.25
2022-08-20T22:16:56.058Z,96233.53
2022-08-20T22:19:22.586Z,96233.44
2022-08-20T22:21:49.619Z,96235.59
2022-08-20T22:24:16.125Z,96229.56
2022-08-20T22:26:42.907Z,96231.63
2022-08-20T22:29:10.165Z,96228.44
2022-08-20T22:31:38.499Z,96227.41
2022-08-20T22:34:05.467Z,96224.56
2022-08-20T22:36:32.838Z,96222.56
2022-08-20T22:38:59.633Z,96219.38
2022-08-20T22:41:26.139Z,96212.38
2022-08-20T22:43:56.934Z,96218.16
2022-08-20T22:46:26.462Z,96217.34
2022-08-20T22:48:53.722Z,96215.06
2022-08-20T22:51:30.392Z,96210.88
2022-08-20T22:53:57.333Z,96209.13
2022-08-20T22:56:23.923Z,96214.16
2022-08-20T22:58:51.072Z,96209.78
2022-08-20T23:01:18.756Z,96201.94
2022-08-20T23:03:45.884Z,96197.50
2022-08-20T23:06:12.865Z,96207.00
2022-08-20T23:08:40.033Z,96202.03
2022-08-20T23:11:06.595Z,96200.66
2022-08-20T23:13:33.334Z,96203.72
2022-08-20T23:15:59.903Z,96195.41
2022-08-20T23:18:26.482Z,96190.28
2022-08-20T23:20:56.109Z,96189.84
2022-08-20T23:23:24.214Z,96185.91
2022-08-20T23:25:50.797Z,96185.19
2022-08-20T23:28:21.058Z,96186.16
2022-08-20T23:30:47.621Z,96183.88
2022-08-20T23:33:14.651Z,96184.16
2022-08-20T23:35:41.983Z,96187.75
2022-08-20T23:38:08.634Z,96183.06
2022-08-20T23:40:35.458Z,96181.31
2022-08-20T23:43:02.105Z,96181.19
2022-08-20T23:45:28.794Z,96179.72
2022-08-20T23:47:55.371Z,96180.16
2022-08-20T23:50:25.789Z,96177.44
2022-08-20T23:52:52.738Z,96171.75
2022-08-20T23:55:19.479Z,96174.81
2022-08-20T23:57:46.019Z,96169.13
